Time;durP1;ratioP1;P1;durP2;ratioP2;P2;SDS_P1;SDS_P2;PMS_P1;PMS_P2;Temp;Humidity;BMP_temperature;BMP_pressure;BME280_temperature;BME280_humidity;BME280_pressure;Samples;Min_cycle;Max_cycle;Signal;HPM_P1;HPM_P2
2023/04/04 00:00:38;;;;;;;1999.90;999.90;;;22.90;99.90;;;;;;5042013;28;20040;-70
2023/04/04 00:03:05;;;;;;;1999.90;999.90;;;23.10;99.90;;;;;;5034582;28;20118;-69
2023/04/04 00:05:34;;;;;;;1999.90;999.90;;;23.20;99.90;;;;;;5031168;28;20071;-69
2023/04/04 00:08:02;;;;;;;1999.90;999.90;;;23.30;99.90;;;;;;5034525;28;20036;-70
2023/04/04 00:10:30;;;;;;;1999.90;999.90;;;23.40;99.90;;;;;;5035642;28;20380;-68
2023/04/04 00:12:57;;;;;;;1999.90;999.90;;;23.50;99.90;;;;;;5035693;28;20462;-69
2023/04/04 00:15:26;;;;;;;1999.90;999.90;;;23.50;99.90;;;;;;5036821;28;20032;-69
2023/04/04 00:17:54;;;;;;;1999.90;999.90;;;23.50;99.90;;;;;;5031804;28;20040;-70
2023/04/04 00:20:21;;;;;;;1999.90;999.90;;;23.60;99.90;;;;;;5039223;28;20033;-70
2023/04/04 00:22:49;;;;;;;1999.90;999.90;;;23.60;99.90;;;;;;5034233;28;20460;-71
2023/04/04 00:25:16;;;;;;;1999.90;999.90;;;23.60;99.90;;;;;;5041494;28;20056;-70
2023/04/04 00:27:43;;;;;;;1999.90;999.90;;;23.60;99.90;;;;;;5037911;28;20037;-70
2023/04/04 00:30:11;;;;;;;1999.90;999.90;;;23.60;99.90;;;;;;5031163;28;20056;-70
2023/04/04 00:32:39;;;;;;;1999.90;999.90;;;23.80;99.90;;;;;;5032110;28;20037;-69
2023/04/04 00:35:06;;;;;;;1999.90;999.90;;;24.20;99.90;;;;;;5039365;28;20050;-69
2023/04/04 00:37:34;;;;;;;1999.90;999.90;;;24.80;99.90;;;;;;5037004;28;20388;-69
2023/04/04 00:40:03;;;;;;;1999.90;999.90;;;25.60;99.90;;;;;;5035937;28;20037;-68
2023/04/04 00:42:30;;;;;;;1999.90;999.90;;;25.90;99.90;;;;;;5034344;28;20029;-69
2023/04/04 00:44:57;;;;;;;1999.90;999.90;;;26.60;99.90;;;;;;5040365;28;20128;-70
2023/04/04 00:47:29;;;;;;;1999.90;999.90;;;27.70;99.90;;;;;;5028865;28;20052;-69
2023/04/04 00:49:56;;;;;;;1999.90;999.90;;;28.70;99.90;;;;;;5038012;28;20037;-69
2023/04/04 00:52:27;;;;;;;1999.90;999.90;;;29.60;99.90;;;;;;5034648;28;20046;-70
2023/04/04 00:54:56;;;;;;;1999.90;999.90;;;30.30;97.80;;;;;;5032303;28;20125;-68
2023/04/04 00:57:23;;;;;;;1999.90;999.90;;;30.50;96.50;;;;;;5034372;28;20053;-69
2023/04/04 00:59:51;;;;;;;1999.90;999.90;;;29.80;96.30;;;;;;5031773;28;20053;-68
2023/04/04 01:02:18;;;;;;;1999.90;999.90;;;29.10;97.20;;;;;;5030380;28;20502;-68
2023/04/04 01:04:46;;;;;;;1999.90;999.90;;;29.20;98.40;;;;;;5027716;28;20463;-69
2023/04/04 01:07:13;;;;;;;1999.90;999.90;;;29.40;98.80;;;;;;5032289;28;20472;-69
2023/04/04 01:09:41;;;;;;;1999.90;999.90;;;29.50;98.70;;;;;;5030082;28;20451;-68
2023/04/04 01:12:09;;;;;;;1999.90;999.90;;;29.50;96.70;;;;;;5028718;28;20052;-68
2023/04/04 01:14:36;;;;;;;1999.90;999.90;;;29.10;97.60;;;;;;5026680;28;20368;-70
2023/04/04 01:17:04;;;;;;;1999.90;999.90;;;29.00;98.20;;;;;;5026498;28;20022;-68
2023/04/04 01:20:00;;;;;;;1999.90;999.90;;;29.10;98.20;;;;;;5027594;28;20037;-68
2023/04/04 01:22:29;;;;;;;1999.90;999.90;;;29.10;97.20;;;;;;5023247;28;20484;-69
2023/04/04 01:24:59;;;;;;;1999.90;999.90;;;28.70;97.50;;;;;;5041286;28;20037;-69
2023/04/04 01:27:27;;;;;;;1999.90;999.90;;;28.40;98.50;;;;;;5028005;28;20071;-68
2023/04/04 01:29:54;;;;;;;1999.90;999.90;;;28.30;98.60;;;;;;5035089;28;20107;-68
2023/04/04 01:32:34;;;;;;;1999.90;999.90;;;28.40;98.70;;;;;;5031109;28;20049;-68
2023/04/04 01:35:32;;;;;;;1999.90;999.90;;;29.40;98.10;;;;;;5033168;28;20060;-69
2023/04/04 01:38:02;;;;;;;1999.90;999.90;;;30.50;97.30;;;;;;5031254;28;20481;-68
2023/04/04 01:40:36;;;;;;;1999.90;999.90;;;30.30;96.40;;;;;;5033107;28;20047;-69
2023/04/04 01:43:04;;;;;;;1999.90;999.90;;;29.70;96.70;;;;;;5038708;28;20032;-68
2023/04/04 01:45:31;;;;;;;1999.90;999.90;;;29.20;96.40;;;;;;5026596;28;20412;-69
2023/04/04 01:47:59;;;;;;;1999.90;999.90;;;29.70;96.80;;;;;;5027882;28;20120;-68
2023/04/04 01:50:26;;;;;;;1999.90;999.90;;;30.10;97.20;;;;;;5021485;28;20410;-67
2023/04/04 01:52:54;;;;;;;1999.90;999.90;;;30.50;95.20;;;;;;5031311;28;20029;-70
2023/04/04 01:55:21;;;;;;;1999.90;999.90;;;31.00;95.10;;;;;;5024333;28;20088;-69
2023/04/04 01:57:48;;;;;;;1999.90;999.90;;;31.50;94.70;;;;;;5034750;28;20075;-69
2023/04/04 02:00:16;;;;;;;1999.90;999.90;;;31.30;94.40;;;;;;5030121;28;20038;-68
2023/04/04 02:02:43;;;;;;;1999.90;999.90;;;31.20;93.30;;;;;;5034548;28;20021;-68
2023/04/04 02:05:11;;;;;;;1999.90;999.90;;;31.10;93.70;;;;;;5037902;28;20582;-68
2023/04/04 02:07:38;;;;;;;1999.90;999.90;;;30.80;94.40;;;;;;5037862;28;20041;-69
2023/04/04 02:10:06;;;;;;;1999.90;999.90;;;30.60;95.10;;;;;;5016926;28;20067;-68
2023/04/04 02:12:33;;;;;;;1999.90;999.90;;;30.40;95.00;;;;;;5026799;28;20056;-70
2023/04/04 02:15:00;;;;;;;1999.90;999.90;;;29.90;95.20;;;;;;5036242;28;20025;-68
2023/04/04 02:17:29;;;;;;;1999.90;999.90;;;29.40;95.60;;;;;;5029774;28;20030;-68
2023/04/04 02:19:56;;;;;;;1999.90;999.90;;;28.90;95.50;;;;;;5036108;28;20033;-68
2023/04/04 02:22:24;;;;;;;1999.90;999.90;;;28.40;96.20;;;;;;5031904;28;20036;-67
2023/04/04 02:24:52;;;;;;;1999.90;999.90;;;28.00;96.60;;;;;;5033183;28;20037;-69
2023/04/04 02:27:20;;;;;;;1999.90;999.90;;;27.50;96.80;;;;;;5034355;28;20093;-69
2023/04/04 02:29:47;;;;;;;1999.90;999.90;;;27.20;97.20;;;;;;5032942;28;20088;-69
2023/04/04 02:32:14;;;;;;;1999.90;999.90;;;26.90;97.70;;;;;;5033670;28;20029;-69
2023/04/04 02:34:42;;;;;;;1999.90;999.90;;;26.60;97.90;;;;;;5035457;28;20033;-70
2023/04/04 02:37:09;;;;;;;1999.90;999.90;;;26.40;98.30;;;;;;5032293;28;20123;-69
2023/04/04 02:39:36;;;;;;;1999.90;999.90;;;26.40;98.80;;;;;;5035423;28;20294;-69
2023/04/04 02:42:04;;;;;;;1999.90;999.90;;;26.30;98.60;;;;;;5025835;28;20021;-70
2023/04/04 02:44:31;;;;;;;1999.90;999.90;;;26.30;98.80;;;;;;5031812;28;20032;-69
2023/04/04 02:46:59;;;;;;;1999.90;999.90;;;26.60;99.40;;;;;;5031877;28;20120;-68
2023/04/04 02:49:28;;;;;;;1999.90;999.90;;;27.60;98.50;;;;;;5032862;28;20029;-69
2023/04/04 02:51:55;;;;;;;1999.90;999.90;;;28.50;97.10;;;;;;5025468;28;20040;-70
2023/04/04 02:54:22;;;;;;;1999.90;999.90;;;29.40;96.00;;;;;;5026519;28;20029;-70
2023/04/04 02:56:50;;;;;;;1999.90;999.90;;;29.80;93.90;;;;;;5023621;28;20029;-70
2023/04/04 02:59:18;;;;;;;1999.90;999.90;;;30.10;94.20;;;;;;5026881;28;20044;-70
2023/04/04 03:01:45;;;;;;;1999.90;999.90;;;30.50;93.90;;;;;;5024955;28;20370;-70
2023/04/04 03:04:13;;;;;;;1999.90;999.90;;;30.80;93.70;;;;;;5028403;28;20588;-70
2023/04/04 03:06:41;;;;;;;1999.90;999.90;;;31.00;92.00;;;;;;5022634;28;20033;-70
2023/04/04 03:09:08;;;;;;;1999.90;999.90;;;30.80;92.10;;;;;;5040966;28;20432;-70
2023/04/04 03:11:35;;;;;;;1999.90;999.90;;;30.60;92.50;;;;;;5028349;28;20118;-70
2023/04/04 03:14:03;;;;;;;1999.90;999.90;;;30.60;93.30;;;;;;5029291;28;20041;-70
2023/04/04 03:16:30;;;;;;;1999.90;999.90;;;30.80;92.80;;;;;;5029033;28;20036;-70
2023/04/04 03:18:57;;;;;;;1999.90;999.90;;;31.10;92.70;;;;;;5032713;28;20037;-70
2023/04/04 03:21:25;;;;;;;1999.90;999.90;;;31.40;93.00;;;;;;5029267;28;20044;-70
2023/04/04 03:23:52;;;;;;;1999.90;999.90;;;31.10;92.20;;;;;;5031030;28;20057;-70
2023/04/04 03:26:19;;;;;;;1999.90;999.90;;;31.10;92.70;;;;;;5032662;28;20041;-70
2023/04/04 03:28:47;;;;;;;1999.90;999.90;;;30.60;92.20;;;;;;5028796;28;20043;-70
2023/04/04 03:31:14;;;;;;;1999.90;999.90;;;29.80;92.20;;;;;;5033462;28;20111;-70
2023/04/04 03:33:41;;;;;;;1999.90;999.90;;;29.10;92.80;;;;;;5032937;28;20033;-70
2023/04/04 03:36:15;;;;;;;1999.90;999.90;;;28.80;93.50;;;;;;5035390;28;20534;-70
2023/04/04 03:38:42;;;;;;;1999.90;999.90;;;28.70;93.80;;;;;;5034086;28;20398;-70
2023/04/04 03:41:10;;;;;;;1999.90;999.90;;;28.40;93.90;;;;;;5029635;28;20021;-70
2023/04/04 03:43:37;;;;;;;1999.90;999.90;;;28.00;93.60;;;;;;5029738;28;20369;-69
2023/04/04 03:46:06;;;;;;;1999.90;999.90;;;28.50;94.50;;;;;;5038697;28;20109;-70
2023/04/04 03:48:34;;;;;;;1999.90;999.90;;;29.00;93.90;;;;;;5031541;28;20048;-69
2023/04/04 03:51:03;;;;;;;1999.90;999.90;;;29.70;93.60;;;;;;5036658;28;20313;-70
2023/04/04 03:53:31;;;;;;;1999.90;999.90;;;30.00;92.60;;;;;;5036079;28;20088;-70
2023/04/04 03:55:59;;;;;;;1999.90;999.90;;;30.20;92.60;;;;;;5039481;28;20037;-70
2023/04/04 03:58:27;;;;;;;1999.90;999.90;;;29.80;92.90;;;;;;5035868;28;20029;-70
2023/04/04 04:00:55;;;;;;;1999.90;999.90;;;29.10;92.80;;;;;;5036501;28;20045;-70
2023/04/04 04:03:22;;;;;;;1999.90;999.90;;;28.90;93.40;;;;;;5032643;28;20384;-70
2023/04/04 04:05:50;;;;;;;1999.90;999.90;;;29.30;93.60;;;;;;5034214;28;20038;-70
2023/04/04 04:08:17;;;;;;;1999.90;999.90;;;29.70;92.80;;;;;;5031698;28;20037;-70
2023/04/04 04:10:44;;;;;;;1999.90;999.90;;;30.10;92.40;;;;;;5035593;28;20052;-70
2023/04/04 04:13:12;;;;;;;1999.90;999.90;;;30.40;92.50;;;;;;5031527;28;20055;-70
2023/04/04 04:15:39;;;;;;;1999.90;999.90;;;30.70;92.60;;;;;;5039231;28;20036;-69
2023/04/04 04:18:06;;;;;;;1999.90;999.90;;;31.00;92.50;;;;;;5029661;28;20036;-70
2023/04/04 04:20:34;;;;;;;1999.90;999.90;;;31.00;91.50;;;;;;5035768;28;20434;-70
2023/04/04 04:23:01;;;;;;;1999.90;999.90;;;31.00;90.80;;;;;;5037290;28;20137;-70
2023/04/04 04:25:28;;;;;;;1999.90;999.90;;;31.00;91.00;;;;;;5032723;28;20032;-70
2023/04/04 04:27:56;;;;;;;1999.90;999.90;;;30.90;91.10;;;;;;5033036;28;20045;-70
2023/04/04 04:30:23;;;;;;;1999.90;999.90;;;31.00;91.00;;;;;;5040955;28;20116;-70
2023/04/04 04:32:51;;;;;;;1999.90;999.90;;;31.00;91.40;;;;;;5031457;28;20549;-70
2023/04/04 04:35:18;;;;;;;1999.90;999.90;;;31.00;91.40;;;;;;5030486;28;20030;-70
2023/04/04 04:37:46;;;;;;;1999.90;999.90;;;30.60;91.10;;;;;;5032087;28;20033;-70
2023/04/04 04:40:13;;;;;;;1999.90;999.90;;;29.80;91.50;;;;;;5033405;28;20099;-70
2023/04/04 04:42:45;;;;;;;1999.90;999.90;;;29.10;92.20;;;;;;5029840;28;20026;-70
2023/04/04 04:45:12;;;;;;;1999.90;999.90;;;28.60;93.10;;;;;;5033746;28;20442;-70
2023/04/04 04:47:39;;;;;;;1999.90;999.90;;;28.00;93.20;;;;;;5025804;28;20080;-70
2023/04/04 04:50:07;;;;;;;1999.90;999.90;;;27.50;93.90;;;;;;5034194;28;20029;-70
2023/04/04 04:52:37;;;;;;;1999.90;999.90;;;27.10;94.10;;;;;;5036785;28;20029;-70
2023/04/04 04:55:05;;;;;;;1999.90;999.90;;;26.90;94.30;;;;;;5031845;28;20469;-70
2023/04/04 04:57:35;;;;;;;1999.90;999.90;;;26.60;94.70;;;;;;5030648;28;20069;-70
2023/04/04 05:00:06;;;;;;;1999.90;999.90;;;26.50;94.90;;;;;;5032366;28;20073;-69
2023/04/04 05:02:33;;;;;;;1999.90;999.90;;;26.50;95.00;;;;;;5034381;28;20045;-69
2023/04/04 05:05:01;;;;;;;1999.90;999.90;;;26.40;95.30;;;;;;5034865;28;20029;-69
2023/04/04 05:07:28;;;;;;;1999.90;999.90;;;26.30;95.50;;;;;;5032445;28;20040;-69
2023/04/04 05:09:55;;;;;;;1999.90;999.90;;;26.20;95.80;;;;;;5036586;28;20449;-69
2023/04/04 05:12:23;;;;;;;1999.90;999.90;;;26.00;95.90;;;;;;5030673;28;20045;-70
2023/04/04 05:14:50;;;;;;;1999.90;999.90;;;25.90;96.00;;;;;;5040814;28;20032;-70
2023/04/04 05:17:17;;;;;;;1999.90;999.90;;;25.80;96.30;;;;;;5035602;28;20029;-70
2023/04/04 05:19:45;;;;;;;1999.90;999.90;;;25.80;96.30;;;;;;5040252;28;20615;-70
2023/04/04 05:22:12;;;;;;;1999.90;999.90;;;25.70;96.40;;;;;;5036162;28;20476;-70
2023/04/04 05:24:41;;;;;;;1999.90;999.90;;;25.70;96.50;;;;;;5032044;28;20102;-70
2023/04/04 05:27:09;;;;;;;1999.90;999.90;;;25.80;96.50;;;;;;5031968;28;20060;-70
2023/04/04 05:29:36;;;;;;;1999.90;999.90;;;26.00;96.30;;;;;;5035902;28;20649;-70
2023/04/04 05:32:04;;;;;;;1999.90;999.90;;;26.30;96.10;;;;;;5034009;28;20037;-70
2023/04/04 05:34:31;;;;;;;1999.90;999.90;;;26.50;95.50;;;;;;5039405;28;20024;-70
2023/04/04 05:36:58;;;;;;;1999.90;999.90;;;26.70;95.70;;;;;;5028988;28;20025;-70
2023/04/04 05:39:26;;;;;;;1999.90;999.90;;;27.00;95.60;;;;;;5035342;28;20091;-72
2023/04/04 05:41:53;;;;;;;1999.90;999.90;;;26.90;94.90;;;;;;5031437;28;20018;-70
2023/04/04 05:44:21;;;;;;;1999.90;999.90;;;26.60;95.10;;;;;;5036459;28;20135;-71
2023/04/04 05:46:48;;;;;;;1999.90;999.90;;;26.30;95.20;;;;;;5038015;28;20046;-70
2023/04/04 05:49:15;;;;;;;1999.90;999.90;;;26.00;96.10;;;;;;5034643;28;20034;-71
2023/04/04 05:51:43;;;;;;;1999.90;999.90;;;25.70;96.60;;;;;;5034589;28;20041;-71
2023/04/04 05:54:10;;;;;;;1999.90;999.90;;;25.70;96.70;;;;;;5038051;28;20537;-69
2023/04/04 05:56:37;;;;;;;1999.90;999.90;;;25.60;96.40;;;;;;5032717;28;20033;-70
2023/04/04 05:59:05;;;;;;;1999.90;999.90;;;25.50;96.70;;;;;;5033531;28;20036;-71
2023/04/04 06:01:33;;;;;;;1999.90;999.90;;;25.50;96.80;;;;;;5029295;28;20527;-71
2023/04/04 06:04:00;;;;;;;1999.90;999.90;;;25.40;96.80;;;;;;5035615;28;20111;-71
2023/04/04 06:06:27;;;;;;;1999.90;999.90;;;25.40;96.50;;;;;;5033125;28;20052;-71
2023/04/04 06:08:55;;;;;;;1999.90;999.90;;;25.30;96.80;;;;;;5034722;28;20029;-71
2023/04/04 06:11:22;;;;;;;1999.90;999.90;;;25.20;97.00;;;;;;5029872;28;20036;-71
2023/04/04 06:13:51;;;;;;;1999.90;999.90;;;25.10;97.40;;;;;;5028057;28;20029;-70
2023/04/04 06:16:19;;;;;;;1999.90;999.90;;;25.10;97.50;;;;;;5032295;28;20017;-71
2023/04/04 06:18:46;;;;;;;1999.90;999.90;;;25.00;97.50;;;;;;5027957;28;20033;-70
2023/04/04 06:21:13;;;;;;;1999.90;999.90;;;24.90;97.60;;;;;;5034103;28;20180;-71
2023/04/04 06:23:41;;;;;;;1999.90;999.90;;;24.70;97.70;;;;;;5029749;28;20540;-71
2023/04/04 06:26:08;;;;;;;1999.90;999.90;;;24.60;98.10;;;;;;5027399;28;20033;-71
2023/04/04 06:28:35;;;;;;;1999.90;999.90;;;24.50;98.20;;;;;;5026403;28;20083;-71
2023/04/04 06:31:05;;;;;;;1999.90;999.90;;;24.40;98.40;;;;;;5028503;28;20025;-72
2023/04/04 06:33:33;;;;;;;1999.90;999.90;;;24.20;98.70;;;;;;5027237;28;20396;-70
2023/04/04 06:36:00;;;;;;;1999.90;999.90;;;24.20;98.90;;;;;;5033119;28;20029;-70
2023/04/04 06:38:28;;;;;;;1999.90;999.90;;;24.10;99.20;;;;;;5026980;28;20033;-71
2023/04/04 06:40:56;;;;;;;1999.90;999.90;;;24.00;99.40;;;;;;5029247;28;20041;-69
2023/04/04 06:43:24;;;;;;;1999.90;999.90;;;24.00;99.70;;;;;;5034787;28;20083;-72
2023/04/04 06:45:51;;;;;;;1999.90;999.90;;;23.90;99.80;;;;;;5029649;28;20064;-70
2023/04/04 06:48:19;;;;;;;1999.90;999.90;;;23.80;99.90;;;;;;5027678;28;20439;-71
2023/04/04 06:50:47;;;;;;;1999.90;999.90;;;23.70;99.90;;;;;;5039944;28;20532;-71
2023/04/04 06:53:14;;;;;;;1999.90;999.90;;;23.70;99.90;;;;;;5031112;28;20026;-71
2023/04/04 06:55:41;;;;;;;1999.90;999.90;;;23.70;99.90;;;;;;5033607;28;20442;-71
2023/04/04 06:58:09;;;;;;;1999.90;999.90;;;23.60;99.90;;;;;;5031788;28;20041;-71
2023/04/04 07:00:36;;;;;;;1999.90;999.90;;;23.50;99.90;;;;;;5033765;28;20057;-72
2023/04/04 07:03:03;;;;;;;1999.90;999.90;;;23.50;99.80;;;;;;5029688;28;20460;-72
2023/04/04 07:05:31;;;;;;;1999.90;999.90;;;23.40;99.90;;;;;;5032783;28;20109;-71
2023/04/04 07:07:58;;;;;;;1999.90;999.90;;;23.40;99.90;;;;;;5035755;28;20021;-72
2023/04/04 07:10:26;;;;;;;1999.90;999.90;;;23.40;99.90;;;;;;5034438;28;20477;-70
2023/04/04 07:12:53;;;;;;;1999.90;999.90;;;23.30;99.90;;;;;;5028659;28;20555;-70
2023/04/04 07:15:20;;;;;;;1999.90;999.90;;;23.20;99.90;;;;;;5029204;28;20057;-70
2023/04/04 07:17:48;;;;;;;1999.90;999.90;;;23.10;99.90;;;;;;5029252;28;20026;-71
2023/04/04 07:20:15;;;;;;;1999.90;999.90;;;23.00;99.90;;;;;;5038071;28;20043;-70
2023/04/04 07:22:43;;;;;;;1999.90;999.90;;;23.00;99.90;;;;;;5033980;28;20037;-69
2023/04/04 07:25:12;;;;;;;1999.90;999.90;;;22.90;99.90;;;;;;5032700;28;20036;-70
2023/04/04 07:27:42;;;;;;;1999.90;999.90;;;22.80;99.90;;;;;;5029798;28;20032;-70
2023/04/04 07:30:10;;;;;;;1999.90;999.90;;;22.80;99.90;;;;;;5030608;28;20498;-70
2023/04/04 07:32:38;;;;;;;1999.90;999.90;;;22.70;99.90;;;;;;5031043;28;20357;-69
2023/04/04 07:35:06;;;;;;;1999.90;999.90;;;22.60;99.90;;;;;;5028090;28;20071;-70
2023/04/04 07:37:37;;;;;;;1999.90;999.90;;;22.60;99.90;;;;;;5029523;28;20112;-71
2023/04/04 07:40:07;;;;;;;1999.90;999.90;;;22.50;99.90;;;;;;5030773;28;20431;-71
2023/04/04 07:42:34;;;;;;;1999.90;999.90;;;22.40;99.90;;;;;;5034217;28;20391;-70
2023/04/04 07:45:02;;;;;;;1999.90;999.90;;;22.40;99.90;;;;;;5027603;28;20047;-71
2023/04/04 07:47:29;;;;;;;1999.90;999.90;;;22.40;99.90;;;;;;5025002;28;20050;-71
2023/04/04 07:49:57;;;;;;;1999.90;999.90;;;22.30;99.90;;;;;;5022224;28;20030;-71
2023/04/04 07:52:24;;;;;;;1999.90;999.90;;;22.30;99.90;;;;;;5030634;28;20030;-72
2023/04/04 07:54:52;;;;;;;1999.90;999.90;;;22.20;99.90;;;;;;5032691;28;20052;-71
2023/04/04 07:57:19;;;;;;;1999.90;999.90;;;22.30;99.90;;;;;;5027266;28;20033;-72
2023/04/04 07:59:47;;;;;;;1999.90;999.90;;;22.30;99.90;;;;;;5036446;28;20049;-71
2023/04/04 08:02:14;;;;;;;1999.90;999.90;;;22.30;99.90;;;;;;5030314;28;20032;-71
2023/04/04 08:04:41;;;;;;;1999.90;999.90;;;22.30;99.90;;;;;;5032393;28;20048;-74
2023/04/04 08:07:09;;;;;;;1999.90;999.90;;;22.20;99.90;;;;;;5027694;28;20061;-70
2023/04/04 08:09:36;;;;;;;1999.90;999.90;;;22.10;99.90;;;;;;5035006;28;20028;-71
2023/04/04 08:12:06;;;;;;;1999.90;999.90;;;22.10;99.90;;;;;;5037596;28;20029;-72
2023/04/04 08:14:34;;;;;;;1999.90;999.90;;;22.00;99.90;;;;;;5031754;28;20037;-72
2023/04/04 08:17:02;;;;;;;1999.90;999.90;;;22.00;99.90;;;;;;5032055;28;20198;-71
2023/04/04 08:19:29;;;;;;;1999.90;999.90;;;22.00;99.90;;;;;;5034849;28;20078;-72
2023/04/04 08:21:56;;;;;;;1999.90;999.90;;;22.00;99.90;;;;;;5031098;28;22500;-73
2023/04/04 08:24:24;;;;;;;1999.90;999.90;;;22.00;99.90;;;;;;5034497;28;20346;-73
2023/04/04 08:26:51;;;;;;;1999.90;999.90;;;22.00;99.90;;;;;;5038881;28;20111;-73
2023/04/04 08:29:18;;;;;;;1999.90;999.90;;;21.90;99.90;;;;;;5038182;28;21215;-72
2023/04/04 08:31:46;;;;;;;1999.90;999.90;;;21.90;99.90;;;;;;5033765;28;20567;-74
2023/04/04 08:34:13;;;;;;;1999.90;999.90;;;21.90;99.90;;;;;;5034071;28;20491;-71
2023/04/04 08:36:41;;;;;;;1999.90;999.90;;;21.70;99.90;;;;;;5034142;28;20108;-70
2023/04/04 08:39:08;;;;;;;1999.90;999.90;;;21.60;99.90;;;;;;5037744;28;20037;-73
2023/04/04 08:41:36;;;;;;;1999.90;999.90;;;21.50;99.90;;;;;;5037250;28;20029;-72
2023/04/04 08:44:04;;;;;;;1999.90;999.90;;;21.40;99.90;;;;;;5036263;28;20029;-71
2023/04/04 08:46:32;;;;;;;1999.90;999.90;;;21.20;99.90;;;;;;5031891;28;20081;-74
2023/04/04 08:48:59;;;;;;;1999.90;999.90;;;21.10;99.90;;;;;;5034960;28;20045;-72
2023/04/04 08:51:28;;;;;;;1999.90;999.90;;;21.10;99.90;;;;;;5037271;28;20022;-72
2023/04/04 08:53:57;;;;;;;1999.90;999.90;;;20.90;99.90;;;;;;5034910;28;20060;-74
2023/04/04 08:56:25;;;;;;;1999.90;999.90;;;20.80;99.90;;;;;;5040549;28;20048;-73
2023/04/04 08:58:52;;;;;;;1999.90;999.90;;;20.80;99.90;;;;;;5036031;28;20515;-72
2023/04/04 09:01:21;;;;;;;1999.90;999.90;;;20.70;99.90;;;;;;5043336;28;20377;-71
2023/04/04 09:03:49;;;;;;;1999.90;999.90;;;20.60;99.90;;;;;;5036070;28;20044;-71
2023/04/04 09:06:18;;;;;;;1999.90;999.90;;;20.50;99.90;;;;;;5036985;28;20029;-73
2023/04/04 09:08:46;;;;;;;1999.90;999.90;;;20.50;99.90;;;;;;5030272;28;20033;-71
2023/04/04 09:11:15;;;;;;;1999.90;999.90;;;20.40;99.90;;;;;;5038378;28;20034;-71
2023/04/04 09:13:44;;;;;;;1999.90;999.90;;;20.40;99.90;;;;;;5032516;28;20033;-71
2023/04/04 09:16:12;;;;;;;1999.90;999.90;;;20.30;99.90;;;;;;5027748;28;20029;-73
2023/04/04 09:18:39;;;;;;;1999.90;999.90;;;20.30;99.90;;;;;;5032871;28;20056;-72
2023/04/04 09:21:13;;;;;;;1999.90;999.90;;;20.20;99.90;;;;;;5031226;28;20029;-71
2023/04/04 09:23:40;;;;;;;1999.90;999.90;;;20.10;99.90;;;;;;5022158;28;20025;-70
2023/04/04 09:26:08;;;;;;;1999.90;999.90;;;20.10;99.90;;;;;;5028929;28;20029;-72
2023/04/04 09:28:35;;;;;;;1999.90;999.90;;;20.10;99.90;;;;;;5025919;28;20120;-69
2023/04/04 09:31:06;;;;;;;1999.90;999.90;;;20.00;99.90;;;;;;5030305;28;20090;-72
2023/04/04 09:33:34;;;;;;;1999.90;999.90;;;19.90;99.90;;;;;;5028676;28;20569;-72
2023/04/04 09:36:11;;;;;;;1999.90;999.90;;;19.90;99.90;;;;;;5017218;28;20132;-71
2023/04/04 09:38:47;;;;;;;1999.90;999.90;;;19.90;99.90;;;;;;5024031;28;20029;-72
2023/04/04 09:41:15;;;;;;;1999.90;999.90;;;19.90;99.90;;;;;;5028862;28;20377;-72
2023/04/04 09:43:45;;;;;;;1999.90;999.90;;;19.80;99.90;;;;;;5035350;28;20049;-72
2023/04/04 09:46:14;;;;;;;1999.90;999.90;;;19.80;99.90;;;;;;5030568;28;20049;-71
2023/04/04 09:48:53;;;;;;;1999.90;999.90;;;19.80;99.90;;;;;;5029054;28;20060;-70
2023/04/04 09:51:20;;;;;;;1999.90;999.90;;;19.70;99.90;;;;;;5036251;28;20029;-71
2023/04/04 09:53:51;;;;;;;1999.90;999.90;;;19.70;99.90;;;;;;5031748;28;20749;-71
2023/04/04 09:56:19;;;;;;;1999.90;999.90;;;19.70;99.90;;;;;;5034509;28;20029;-71
2023/04/04 09:58:48;;;;;;;1999.90;999.90;;;19.70;99.90;;;;;;5028990;28;20139;-71
2023/04/04 10:01:18;;;;;;;1999.90;999.90;;;19.70;99.90;;;;;;5031029;28;20448;-70
2023/04/04 10:03:54;;;;;;;1999.90;999.90;;;19.70;99.90;;;;;;5031113;28;20043;-71
2023/04/04 10:06:23;;;;;;;1999.90;999.90;;;19.70;99.90;;;;;;5033575;28;20532;-71
2023/04/04 10:08:50;;;;;;;1999.90;999.90;;;19.60;99.90;;;;;;5031607;28;20069;-71
2023/04/04 10:11:32;;;;;;;1999.90;999.90;;;19.50;99.90;;;;;;5032658;28;20025;-69
2023/04/04 10:14:02;;;;;;;1999.90;999.90;;;19.50;99.90;;;;;;5028959;28;20032;-70
2023/04/04 10:16:37;;;;;;;1999.90;999.90;;;19.30;99.90;;;;;;5023982;28;20523;-70
2023/04/04 10:19:08;;;;;;;1999.90;999.90;;;19.30;99.90;;;;;;5030384;28;20039;-71
2023/04/04 10:21:36;;;;;;;1999.90;999.90;;;19.10;99.90;;;;;;5027148;28;20032;-69
2023/04/04 10:24:07;;;;;;;1999.90;999.90;;;19.10;99.90;;;;;;5032676;28;20033;-69
2023/04/04 10:26:35;;;;;;;1999.90;999.90;;;18.90;99.90;;;;;;5032884;28;20083;-69
2023/04/04 10:29:04;;;;;;;1999.90;999.90;;;18.90;99.90;;;;;;5031800;28;20040;-70
2023/04/04 10:31:33;;;;;;;1999.90;999.90;;;18.80;99.90;;;;;;5029785;28;20036;-70
2023/04/04 10:34:37;;;;;;;1999.90;999.90;;;18.80;99.90;;;;;;5031425;28;20107;-70
2023/04/04 10:37:22;;;;;;;1999.90;999.90;;;18.70;99.90;;;;;;5028670;28;20130;-70
2023/04/04 10:40:00;;;;;;;1999.90;999.90;;;18.70;99.90;;;;;;5019712;28;20051;-70
2023/04/04 10:42:32;;;;;;;1999.90;999.90;;;18.60;99.90;;;;;;5025046;28;20059;-71
2023/04/04 10:45:02;;;;;;;1999.90;999.90;;;18.60;99.90;;;;;;5029107;28;20025;-70
2023/04/04 10:47:30;;;;;;;1999.90;999.90;;;18.50;99.90;;;;;;5025177;28;20464;-73
2023/04/04 10:49:58;;;;;;;1999.90;999.90;;;18.50;99.90;;;;;;5029035;28;21760;-69
2023/04/04 10:52:30;;;;;;;1999.90;999.90;;;18.50;99.90;;;;;;5029444;28;20080;-70
2023/04/04 10:55:01;;;;;;;1999.90;999.90;;;18.40;99.90;;;;;;5030149;28;20585;-70
2023/04/04 10:57:29;;;;;;;1999.90;999.90;;;18.40;99.90;;;;;;5029163;28;20037;-70
2023/04/04 11:00:07;;;;;;;1999.90;999.90;;;18.30;99.90;;;;;;5035647;28;20559;-70
2023/04/04 11:02:47;;;;;;;1999.90;999.90;;;18.30;99.90;;;;;;5031131;28;20033;-70
2023/04/04 11:05:39;;;;;;;1999.90;999.90;;;18.20;99.90;;;;;;5037512;28;20120;-70
2023/04/04 11:08:09;;;;;;;1999.90;999.90;;;18.20;99.90;;;;;;5029641;28;20033;-68
2023/04/04 11:10:43;;;;;;;1999.90;999.90;;;18.20;99.90;;;;;;5031831;28;20037;-70
2023/04/04 11:13:38;;;;;;;1999.90;999.90;;;18.20;99.90;;;;;;5028763;28;20110;-70
2023/04/04 11:16:13;;;;;;;1999.90;999.90;;;18.20;99.90;;;;;;5025305;28;20029;-69
2023/04/04 11:18:41;;;;;;;1999.90;999.90;;;18.20;99.90;;;;;;5019027;28;20057;-69
2023/04/04 11:21:10;;;;;;;1999.90;999.90;;;18.20;99.90;;;;;;5029295;28;20037;-71
2023/04/04 11:23:50;;;;;;;1999.90;999.90;;;18.20;99.90;;;;;;5027397;28;20037;-70
2023/04/04 11:26:27;;;;;;;1999.90;999.90;;;18.20;99.90;;;;;;5031283;28;20038;-69
2023/04/04 11:29:08;;;;;;;1999.90;999.90;;;18.10;99.90;;;;;;5029144;28;20147;-70
2023/04/04 11:31:40;;;;;;;1999.90;999.90;;;18.10;99.90;;;;;;5028026;28;20041;-69
2023/04/04 11:34:11;;;;;;;1999.90;999.90;;;18.10;99.90;;;;;;5043783;28;20170;-69
2023/04/04 11:36:40;;;;;;;1999.90;999.90;;;18.00;99.90;;;;;;5024534;28;20025;-70
2023/04/04 11:39:11;;;;;;;1999.90;999.90;;;18.00;99.90;;;;;;5036613;28;20060;-69
2023/04/04 11:41:57;;;;;;;1999.90;999.90;;;18.00;99.90;;;;;;5030182;28;20033;-68
2023/04/04 11:44:30;;;;;;;1999.90;999.90;;;17.90;99.90;;;;;;5034682;28;20083;-69
2023/04/04 11:47:08;;;;;;;1999.90;999.90;;;17.90;99.90;;;;;;5032235;28;20144;-69
2023/04/04 11:49:38;;;;;;;1999.90;999.90;;;17.90;99.90;;;;;;5044568;28;20078;-69
2023/04/04 11:52:11;;;;;;;1999.90;999.90;;;17.90;99.90;;;;;;5030143;28;20044;-68
2023/04/04 11:54:40;;;;;;;1999.90;999.90;;;17.90;99.90;;;;;;5040353;28;20044;-67
2023/04/04 11:57:11;;;;;;;1999.90;999.90;;;17.90;99.90;;;;;;5035454;28;20021;-68
2023/04/04 11:59:46;;;;;;;1999.90;999.90;;;17.90;99.90;;;;;;5035402;28;20392;-68
2023/04/04 12:02:20;;;;;;;1999.90;999.90;;;17.90;99.90;;;;;;5027080;28;20040;-69
2023/04/04 12:04:50;;;;;;;1999.90;999.90;;;17.80;99.90;;;;;;5036184;28;20033;-68
2023/04/04 12:07:18;;;;;;;1999.90;999.90;;;17.80;99.90;;;;;;5037339;28;20049;-68